Terminal Aerodrome Forecast
Issued by NWS

Home | Current Version | Previous Version | Text Only | Print | Product List | Glossary On
Versions: 1 2 3 4 5 6 7 8 9 10 11 12
000
FTUS46 KMTR 221120
TAFOAK
TAF
KOAK 221120Z 2212/2318 VRB04KT P6SM SKC
     FM221700 23005KT P6SM FEW250
     FM222100 29013KT P6SM FEW250
     FM230400 30008KT P6SM SCT250
     FM230800 02005KT P6SM SCT250
     FM231400 VRB04KT P6SM SCT250=

USA.gov is the U.S. government's official web portal to all federal, state and local government web resources and services.